sensor_id;sensor_type;location;lat;lon;timestamp;P1;durP1;ratioP1;P2;durP2;ratioP2
40599;SDS011;26309;50.924;4.754;2023-12-20T00:01:55;11.93;;;3.07;;
40599;SDS011;26309;50.924;4.754;2023-12-20T00:04:21;13.47;;;3.37;;
40599;SDS011;26309;50.924;4.754;2023-12-20T00:06:47;22.57;;;3.80;;
40599;SDS011;26309;50.924;4.754;2023-12-20T00:09:13;17.17;;;3.70;;
40599;SDS011;26309;50.924;4.754;2023-12-20T00:11:39;19.07;;;3.57;;
40599;SDS011;26309;50.924;4.754;2023-12-20T00:14:07;15.67;;;3.00;;
40599;SDS011;26309;50.924;4.754;2023-12-20T00:16:32;11.73;;;3.27;;
40599;SDS011;26309;50.924;4.754;2023-12-20T00:19:01;20.80;;;3.63;;
40599;SDS011;26309;50.924;4.754;2023-12-20T00:21:27;17.00;;;3.57;;
40599;SDS011;26309;50.924;4.754;2023-12-20T00:23:53;15.00;;;3.37;;
40599;SDS011;26309;50.924;4.754;2023-12-20T00:26:19;11.03;;;3.53;;
40599;SDS011;26309;50.924;4.754;2023-12-20T00:28:45;20.30;;;3.27;;
40599;SDS011;26309;50.924;4.754;2023-12-20T00:31:10;17.87;;;3.60;;
40599;SDS011;26309;50.924;4.754;2023-12-20T00:33:36;17.17;;;3.33;;
40599;SDS011;26309;50.924;4.754;2023-12-20T00:36:02;17.10;;;3.70;;
40599;SDS011;26309;50.924;4.754;2023-12-20T00:38:28;20.73;;;3.83;;
40599;SDS011;26309;50.924;4.754;2023-12-20T00:40:54;22.07;;;3.50;;
40599;SDS011;26309;50.924;4.754;2023-12-20T00:43:20;19.07;;;3.80;;
40599;SDS011;26309;50.924;4.754;2023-12-20T00:45:46;16.77;;;4.30;;
40599;SDS011;26309;50.924;4.754;2023-12-20T00:48:12;21.67;;;3.93;;
40599;SDS011;26309;50.924;4.754;2023-12-20T00:50:38;15.63;;;3.93;;
40599;SDS011;26309;50.924;4.754;2023-12-20T00:53:03;15.50;;;3.73;;
40599;SDS011;26309;50.924;4.754;2023-12-20T00:55:30;18.93;;;3.87;;
40599;SDS011;26309;50.924;4.754;2023-12-20T00:57:56;18.27;;;3.93;;
40599;SDS011;26309;50.924;4.754;2023-12-20T01:00:24;21.03;;;3.87;;
40599;SDS011;26309;50.924;4.754;2023-12-20T01:02:50;10.13;;;3.10;;
40599;SDS011;26309;50.924;4.754;2023-12-20T01:05:17;18.23;;;3.93;;
40599;SDS011;26309;50.924;4.754;2023-12-20T01:07:44;21.73;;;3.70;;
40599;SDS011;26309;50.924;4.754;2023-12-20T01:10:10;27.27;;;4.20;;
40599;SDS011;26309;50.924;4.754;2023-12-20T01:12:36;20.40;;;3.67;;
40599;SDS011;26309;50.924;4.754;2023-12-20T01:15:02;19.87;;;3.93;;
40599;SDS011;26309;50.924;4.754;2023-12-20T01:17:29;15.53;;;3.40;;
40599;SDS011;26309;50.924;4.754;2023-12-20T01:19:54;17.57;;;3.60;;
40599;SDS011;26309;50.924;4.754;2023-12-20T01:22:20;19.27;;;3.77;;
40599;SDS011;26309;50.924;4.754;2023-12-20T01:24:46;11.37;;;3.10;;
40599;SDS011;26309;50.924;4.754;2023-12-20T01:27:15;15.43;;;3.30;;
40599;SDS011;26309;50.924;4.754;2023-12-20T01:29:41;18.83;;;3.10;;
40599;SDS011;26309;50.924;4.754;2023-12-20T01:32:07;15.87;;;3.20;;
40599;SDS011;26309;50.924;4.754;2023-12-20T01:34:32;12.00;;;3.67;;
40599;SDS011;26309;50.924;4.754;2023-12-20T01:36:58;24.57;;;3.93;;
40599;SDS011;26309;50.924;4.754;2023-12-20T01:39:25;15.03;;;3.63;;
40599;SDS011;26309;50.924;4.754;2023-12-20T01:41:51;20.80;;;3.80;;
40599;SDS011;26309;50.924;4.754;2023-12-20T01:44:17;13.80;;;3.13;;
40599;SDS011;26309;50.924;4.754;2023-12-20T01:46:43;13.67;;;3.67;;
40599;SDS011;26309;50.924;4.754;2023-12-20T01:49:09;15.73;;;3.77;;
40599;SDS011;26309;50.924;4.754;2023-12-20T01:51:35;18.73;;;3.43;;
40599;SDS011;26309;50.924;4.754;2023-12-20T01:54:01;16.50;;;3.57;;
40599;SDS011;26309;50.924;4.754;2023-12-20T01:56:27;18.10;;;3.73;;
40599;SDS011;26309;50.924;4.754;2023-12-20T01:58:55;21.23;;;3.60;;
40599;SDS011;26309;50.924;4.754;2023-12-20T02:01:21;15.53;;;4.03;;
40599;SDS011;26309;50.924;4.754;2023-12-20T02:03:47;16.43;;;4.10;;
40599;SDS011;26309;50.924;4.754;2023-12-20T02:06:14;29.33;;;4.20;;
40599;SDS011;26309;50.924;4.754;2023-12-20T02:08:41;18.00;;;4.23;;
40599;SDS011;26309;50.924;4.754;2023-12-20T02:11:07;23.87;;;4.53;;
40599;SDS011;26309;50.924;4.754;2023-12-20T02:13:35;20.50;;;4.53;;
40599;SDS011;26309;50.924;4.754;2023-12-20T02:16:01;15.17;;;4.77;;
40599;SDS011;26309;50.924;4.754;2023-12-20T02:18:27;12.73;;;3.83;;
40599;SDS011;26309;50.924;4.754;2023-12-20T02:20:53;19.67;;;4.47;;
40599;SDS011;26309;50.924;4.754;2023-12-20T02:23:20;12.03;;;4.43;;
40599;SDS011;26309;50.924;4.754;2023-12-20T02:25:47;18.60;;;4.30;;
40599;SDS011;26309;50.924;4.754;2023-12-20T02:28:13;22.37;;;5.60;;
40599;SDS011;26309;50.924;4.754;2023-12-20T02:30:39;21.13;;;4.90;;
40599;SDS011;26309;50.924;4.754;2023-12-20T02:33:06;17.40;;;4.90;;
40599;SDS011;26309;50.924;4.754;2023-12-20T02:38:10;15.97;;;4.93;;
40599;SDS011;26309;50.924;4.754;2023-12-20T02:40:37;16.77;;;4.97;;
40599;SDS011;26309;50.924;4.754;2023-12-20T02:43:02;19.77;;;5.30;;
40599;SDS011;26309;50.924;4.754;2023-12-20T02:45:28;28.43;;;5.53;;
40599;SDS011;26309;50.924;4.754;2023-12-20T02:47:55;30.27;;;5.57;;
40599;SDS011;26309;50.924;4.754;2023-12-20T02:50:21;27.00;;;5.67;;
40599;SDS011;26309;50.924;4.754;2023-12-20T02:52:47;23.97;;;5.70;;
40599;SDS011;26309;50.924;4.754;2023-12-20T02:55:12;25.87;;;5.50;;
40599;SDS011;26309;50.924;4.754;2023-12-20T02:57:41;19.07;;;4.83;;
40599;SDS011;26309;50.924;4.754;2023-12-20T03:00:08;21.93;;;5.13;;
40599;SDS011;26309;50.924;4.754;2023-12-20T03:02:35;25.20;;;5.03;;
40599;SDS011;26309;50.924;4.754;2023-12-20T03:05:02;27.23;;;5.33;;
40599;SDS011;26309;50.924;4.754;2023-12-20T03:07:28;16.97;;;5.10;;
40599;SDS011;26309;50.924;4.754;2023-12-20T03:09:54;21.60;;;4.83;;
40599;SDS011;26309;50.924;4.754;2023-12-20T03:12:20;25.03;;;4.77;;
40599;SDS011;26309;50.924;4.754;2023-12-20T03:14:45;21.83;;;5.00;;
40599;SDS011;26309;50.924;4.754;2023-12-20T03:17:11;17.03;;;4.67;;
40599;SDS011;26309;50.924;4.754;2023-12-20T03:19:37;25.93;;;5.10;;
40599;SDS011;26309;50.924;4.754;2023-12-20T03:22:03;24.70;;;5.63;;
40599;SDS011;26309;50.924;4.754;2023-12-20T03:24:28;24.17;;;5.20;;
40599;SDS011;26309;50.924;4.754;2023-12-20T03:26:54;18.77;;;5.07;;
40599;SDS011;26309;50.924;4.754;2023-12-20T03:29:20;25.77;;;4.93;;
40599;SDS011;26309;50.924;4.754;2023-12-20T03:31:46;17.40;;;5.00;;
40599;SDS011;26309;50.924;4.754;2023-12-20T03:34:12;21.80;;;4.40;;
40599;SDS011;26309;50.924;4.754;2023-12-20T03:36:37;19.07;;;4.87;;
40599;SDS011;26309;50.924;4.754;2023-12-20T03:39:04;18.20;;;4.77;;
40599;SDS011;26309;50.924;4.754;2023-12-20T03:41:30;19.63;;;4.17;;
40599;SDS011;26309;50.924;4.754;2023-12-20T03:43:56;21.90;;;5.03;;
40599;SDS011;26309;50.924;4.754;2023-12-20T03:46:21;23.47;;;4.97;;
40599;SDS011;26309;50.924;4.754;2023-12-20T03:48:47;28.63;;;5.47;;
40599;SDS011;26309;50.924;4.754;2023-12-20T03:51:13;23.20;;;4.80;;
40599;SDS011;26309;50.924;4.754;2023-12-20T03:53:39;18.40;;;5.00;;
40599;SDS011;26309;50.924;4.754;2023-12-20T03:56:06;22.67;;;5.37;;
40599;SDS011;26309;50.924;4.754;2023-12-20T03:58:33;20.73;;;4.57;;
40599;SDS011;26309;50.924;4.754;2023-12-20T04:00:59;18.97;;;4.63;;
40599;SDS011;26309;50.924;4.754;2023-12-20T04:03:24;22.17;;;5.30;;
40599;SDS011;26309;50.924;4.754;2023-12-20T04:05:50;25.17;;;5.80;;
40599;SDS011;26309;50.924;4.754;2023-12-20T04:08:16;23.20;;;5.50;;
40599;SDS011;26309;50.924;4.754;2023-12-20T04:10:42;28.80;;;5.13;;
40599;SDS011;26309;50.924;4.754;2023-12-20T04:13:08;24.83;;;5.60;;
40599;SDS011;26309;50.924;4.754;2023-12-20T04:15:34;24.17;;;5.23;;
40599;SDS011;26309;50.924;4.754;2023-12-20T04:18:00;15.40;;;4.80;;
40599;SDS011;26309;50.924;4.754;2023-12-20T04:20:26;23.43;;;5.97;;
40599;SDS011;26309;50.924;4.754;2023-12-20T04:22:51;21.17;;;5.57;;
40599;SDS011;26309;50.924;4.754;2023-12-20T04:25:25;24.10;;;5.60;;
40599;SDS011;26309;50.924;4.754;2023-12-20T04:27:51;20.10;;;5.17;;
40599;SDS011;26309;50.924;4.754;2023-12-20T04:30:17;25.07;;;6.07;;
40599;SDS011;26309;50.924;4.754;2023-12-20T04:32:43;25.37;;;5.73;;
40599;SDS011;26309;50.924;4.754;2023-12-20T04:35:09;18.80;;;4.67;;
40599;SDS011;26309;50.924;4.754;2023-12-20T04:37:35;21.47;;;5.30;;
40599;SDS011;26309;50.924;4.754;2023-12-20T04:40:01;26.60;;;5.50;;
40599;SDS011;26309;50.924;4.754;2023-12-20T04:42:27;20.90;;;5.03;;
40599;SDS011;26309;50.924;4.754;2023-12-20T04:44:52;25.93;;;5.27;;
40599;SDS011;26309;50.924;4.754;2023-12-20T04:47:21;17.63;;;4.50;;
40599;SDS011;26309;50.924;4.754;2023-12-20T04:49:47;25.57;;;5.60;;
40599;SDS011;26309;50.924;4.754;2023-12-20T04:52:13;21.20;;;4.47;;
40599;SDS011;26309;50.924;4.754;2023-12-20T04:54:39;22.10;;;5.23;;
40599;SDS011;26309;50.924;4.754;2023-12-20T04:57:05;21.97;;;4.30;;
40599;SDS011;26309;50.924;4.754;2023-12-20T04:59:31;20.13;;;5.03;;
40599;SDS011;26309;50.924;4.754;2023-12-20T05:01:57;25.20;;;5.63;;
40599;SDS011;26309;50.924;4.754;2023-12-20T05:04:25;27.40;;;5.20;;
40599;SDS011;26309;50.924;4.754;2023-12-20T05:06:51;20.80;;;4.93;;
40599;SDS011;26309;50.924;4.754;2023-12-20T05:09:17;17.80;;;5.37;;
40599;SDS011;26309;50.924;4.754;2023-12-20T05:11:43;26.13;;;5.33;;
40599;SDS011;26309;50.924;4.754;2023-12-20T05:14:08;23.30;;;5.30;;
40599;SDS011;26309;50.924;4.754;2023-12-20T05:16:35;22.77;;;4.97;;
40599;SDS011;26309;50.924;4.754;2023-12-20T05:19:01;22.97;;;4.93;;
40599;SDS011;26309;50.924;4.754;2023-12-20T05:21:33;23.17;;;5.10;;
40599;SDS011;26309;50.924;4.754;2023-12-20T05:23:59;15.17;;;5.43;;
40599;SDS011;26309;50.924;4.754;2023-12-20T05:26:26;20.77;;;5.00;;
40599;SDS011;26309;50.924;4.754;2023-12-20T05:28:52;21.50;;;5.53;;
40599;SDS011;26309;50.924;4.754;2023-12-20T05:31:18;21.37;;;4.93;;
40599;SDS011;26309;50.924;4.754;2023-12-20T05:33:43;26.07;;;5.70;;
40599;SDS011;26309;50.924;4.754;2023-12-20T05:36:09;18.30;;;5.73;;
40599;SDS011;26309;50.924;4.754;2023-12-20T05:38:36;25.00;;;5.90;;
40599;SDS011;26309;50.924;4.754;2023-12-20T05:41:02;26.43;;;6.40;;
40599;SDS011;26309;50.924;4.754;2023-12-20T05:43:29;27.20;;;5.37;;
40599;SDS011;26309;50.924;4.754;2023-12-20T05:45:54;24.13;;;6.27;;
40599;SDS011;26309;50.924;4.754;2023-12-20T05:48:20;21.33;;;5.50;;
40599;SDS011;26309;50.924;4.754;2023-12-20T05:50:46;27.73;;;5.73;;
40599;SDS011;26309;50.924;4.754;2023-12-20T05:53:12;29.80;;;5.67;;
40599;SDS011;26309;50.924;4.754;2023-12-20T05:55:37;24.73;;;5.17;;
40599;SDS011;26309;50.924;4.754;2023-12-20T05:58:03;20.77;;;5.40;;
40599;SDS011;26309;50.924;4.754;2023-12-20T06:00:30;25.73;;;5.37;;
40599;SDS011;26309;50.924;4.754;2023-12-20T06:02:56;15.87;;;4.80;;
40599;SDS011;26309;50.924;4.754;2023-12-20T06:05:22;28.60;;;5.77;;
40599;SDS011;26309;50.924;4.754;2023-12-20T06:07:49;17.73;;;5.17;;
40599;SDS011;26309;50.924;4.754;2023-12-20T06:10:16;25.10;;;5.10;;
40599;SDS011;26309;50.924;4.754;2023-12-20T06:12:42;25.50;;;5.67;;
40599;SDS011;26309;50.924;4.754;2023-12-20T06:15:08;18.53;;;5.03;;
40599;SDS011;26309;50.924;4.754;2023-12-20T06:17:34;25.17;;;5.23;;
40599;SDS011;26309;50.924;4.754;2023-12-20T06:20:00;20.17;;;5.20;;
40599;SDS011;26309;50.924;4.754;2023-12-20T06:22:26;25.33;;;5.43;;
40599;SDS011;26309;50.924;4.754;2023-12-20T06:24:52;18.73;;;5.43;;
40599;SDS011;26309;50.924;4.754;2023-12-20T06:27:18;19.43;;;5.17;;
40599;SDS011;26309;50.924;4.754;2023-12-20T06:29:43;16.57;;;5.07;;
40599;SDS011;26309;50.924;4.754;2023-12-20T06:32:10;22.10;;;5.83;;
40599;SDS011;26309;50.924;4.754;2023-12-20T06:34:36;25.47;;;5.00;;
40599;SDS011;26309;50.924;4.754;2023-12-20T06:37:03;17.80;;;5.63;;
40599;SDS011;26309;50.924;4.754;2023-12-20T06:39:30;19.03;;;5.57;;
40599;SDS011;26309;50.924;4.754;2023-12-20T06:41:59;19.23;;;5.20;;
40599;SDS011;26309;50.924;4.754;2023-12-20T06:44:25;23.33;;;5.60;;
40599;SDS011;26309;50.924;4.754;2023-12-20T06:46:50;20.27;;;5.23;;
40599;SDS011;26309;50.924;4.754;2023-12-20T06:49:16;17.80;;;5.10;;
40599;SDS011;26309;50.924;4.754;2023-12-20T06:51:43;21.77;;;4.90;;
40599;SDS011;26309;50.924;4.754;2023-12-20T06:54:09;20.97;;;5.13;;
40599;SDS011;26309;50.924;4.754;2023-12-20T06:56:35;19.83;;;4.77;;
40599;SDS011;26309;50.924;4.754;2023-12-20T06:59:01;22.00;;;5.00;;
40599;SDS011;26309;50.924;4.754;2023-12-20T07:01:26;20.63;;;4.97;;
40599;SDS011;26309;50.924;4.754;2023-12-20T07:03:52;26.80;;;4.67;;
40599;SDS011;26309;50.924;4.754;2023-12-20T07:06:18;22.27;;;4.37;;
40599;SDS011;26309;50.924;4.754;2023-12-20T07:08:44;26.37;;;4.60;;
40599;SDS011;26309;50.924;4.754;2023-12-20T07:11:10;16.97;;;4.00;;
40599;SDS011;26309;50.924;4.754;2023-12-20T07:13:36;21.67;;;4.37;;
40599;SDS011;26309;50.924;4.754;2023-12-20T07:16:03;22.17;;;4.70;;
40599;SDS011;26309;50.924;4.754;2023-12-20T07:18:29;24.17;;;4.80;;
40599;SDS011;26309;50.924;4.754;2023-12-20T07:20:55;19.07;;;4.17;;
40599;SDS011;26309;50.924;4.754;2023-12-20T07:23:21;19.57;;;4.20;;
40599;SDS011;26309;50.924;4.754;2023-12-20T07:25:47;21.67;;;4.20;;
40599;SDS011;26309;50.924;4.754;2023-12-20T07:28:12;19.53;;;4.00;;
40599;SDS011;26309;50.924;4.754;2023-12-20T07:30:38;21.50;;;4.23;;
40599;SDS011;26309;50.924;4.754;2023-12-20T07:33:05;18.13;;;3.90;;
40599;SDS011;26309;50.924;4.754;2023-12-20T07:35:33;22.03;;;4.90;;
40599;SDS011;26309;50.924;4.754;2023-12-20T07:37:59;18.17;;;3.73;;
40599;SDS011;26309;50.924;4.754;2023-12-20T07:40:25;16.10;;;3.53;;
40599;SDS011;26309;50.924;4.754;2023-12-20T07:42:52;15.70;;;3.70;;
40599;SDS011;26309;50.924;4.754;2023-12-20T07:45:18;23.80;;;4.40;;
40599;SDS011;26309;50.924;4.754;2023-12-20T07:47:44;20.93;;;4.10;;
40599;SDS011;26309;50.924;4.754;2023-12-20T07:50:09;19.00;;;4.43;;
40599;SDS011;26309;50.924;4.754;2023-12-20T07:52:35;17.40;;;4.00;;
40599;SDS011;26309;50.924;4.754;2023-12-20T07:55:01;21.83;;;4.10;;
40599;SDS011;26309;50.924;4.754;2023-12-20T07:57:29;17.87;;;4.20;;
40599;SDS011;26309;50.924;4.754;2023-12-20T07:59:55;15.83;;;4.37;;
40599;SDS011;26309;50.924;4.754;2023-12-20T08:02:21;21.07;;;4.27;;
40599;SDS011;26309;50.924;4.754;2023-12-20T08:04:47;22.97;;;3.70;;
40599;SDS011;26309;50.924;4.754;2023-12-20T08:07:12;23.53;;;4.30;;
40599;SDS011;26309;50.924;4.754;2023-12-20T08:09:38;16.87;;;4.00;;
40599;SDS011;26309;50.924;4.754;2023-12-20T08:12:04;19.03;;;3.97;;
40599;SDS011;26309;50.924;4.754;2023-12-20T08:14:30;25.67;;;3.97;;
40599;SDS011;26309;50.924;4.754;2023-12-20T08:16:56;16.17;;;3.47;;
40599;SDS011;26309;50.924;4.754;2023-12-20T08:19:22;14.57;;;3.70;;
40599;SDS011;26309;50.924;4.754;2023-12-20T08:21:48;16.80;;;3.77;;
40599;SDS011;26309;50.924;4.754;2023-12-20T08:24:14;24.07;;;4.20;;
40599;SDS011;26309;50.924;4.754;2023-12-20T08:26:39;21.73;;;3.80;;
40599;SDS011;26309;50.924;4.754;2023-12-20T08:29:05;17.43;;;4.17;;
40599;SDS011;26309;50.924;4.754;2023-12-20T08:31:32;16.57;;;4.10;;
40599;SDS011;26309;50.924;4.754;2023-12-20T08:33:58;16.83;;;3.67;;
40599;SDS011;26309;50.924;4.754;2023-12-20T08:36:23;14.80;;;3.60;;
40599;SDS011;26309;50.924;4.754;2023-12-20T08:38:49;19.13;;;3.50;;
40599;SDS011;26309;50.924;4.754;2023-12-20T08:41:19;14.00;;;3.73;;
40599;SDS011;26309;50.924;4.754;2023-12-20T08:43:45;17.27;;;3.57;;
40599;SDS011;26309;50.924;4.754;2023-12-20T08:46:11;18.93;;;3.50;;
40599;SDS011;26309;50.924;4.754;2023-12-20T08:48:37;18.07;;;3.50;;
40599;SDS011;26309;50.924;4.754;2023-12-20T08:51:03;14.93;;;3.50;;
40599;SDS011;26309;50.924;4.754;2023-12-20T08:53:29;20.60;;;3.60;;
40599;SDS011;26309;50.924;4.754;2023-12-20T08:55:55;22.97;;;3.30;;
40599;SDS011;26309;50.924;4.754;2023-12-20T08:58:23;18.10;;;3.30;;
40599;SDS011;26309;50.924;4.754;2023-12-20T09:00:49;21.37;;;4.57;;
40599;SDS011;26309;50.924;4.754;2023-12-20T09:03:14;18.27;;;3.80;;
40599;SDS011;26309;50.924;4.754;2023-12-20T09:05:40;16.97;;;3.67;;
40599;SDS011;26309;50.924;4.754;2023-12-20T09:08:06;18.77;;;3.47;;
40599;SDS011;26309;50.924;4.754;2023-12-20T09:10:35;17.50;;;3.43;;
40599;SDS011;26309;50.924;4.754;2023-12-20T09:13:01;16.07;;;3.30;;
40599;SDS011;26309;50.924;4.754;2023-12-20T09:15:27;21.80;;;3.53;;
40599;SDS011;26309;50.924;4.754;2023-12-20T09:17:55;17.77;;;3.53;;
40599;SDS011;26309;50.924;4.754;2023-12-20T09:20:21;21.50;;;3.50;;
40599;SDS011;26309;50.924;4.754;2023-12-20T09:22:48;16.33;;;2.93;;
40599;SDS011;26309;50.924;4.754;2023-12-20T09:25:14;15.70;;;3.07;;
40599;SDS011;26309;50.924;4.754;2023-12-20T09:27:42;19.20;;;3.30;;
40599;SDS011;26309;50.924;4.754;2023-12-20T09:30:08;22.77;;;4.00;;
40599;SDS011;26309;50.924;4.754;2023-12-20T09:32:35;17.57;;;3.30;;
40599;SDS011;26309;50.924;4.754;2023-12-20T09:35:01;18.47;;;3.80;;
40599;SDS011;26309;50.924;4.754;2023-12-20T09:37:27;19.13;;;3.63;;
40599;SDS011;26309;50.924;4.754;2023-12-20T09:39:53;13.93;;;3.50;;
40599;SDS011;26309;50.924;4.754;2023-12-20T09:42:38;21.63;;;3.47;;
40599;SDS011;26309;50.924;4.754;2023-12-20T09:45:07;13.87;;;3.77;;
40599;SDS011;26309;50.924;4.754;2023-12-20T09:47:35;11.50;;;3.13;;
40599;SDS011;26309;50.924;4.754;2023-12-20T09:50:02;17.07;;;3.63;;
40599;SDS011;26309;50.924;4.754;2023-12-20T09:52:28;10.57;;;3.43;;
40599;SDS011;26309;50.924;4.754;2023-12-20T09:54:54;15.57;;;3.40;;
40599;SDS011;26309;50.924;4.754;2023-12-20T09:57:22;18.33;;;3.73;;
40599;SDS011;26309;50.924;4.754;2023-12-20T09:59:48;12.47;;;2.93;;
40599;SDS011;26309;50.924;4.754;2023-12-20T10:02:14;13.37;;;3.30;;
40599;SDS011;26309;50.924;4.754;2023-12-20T10:04:43;12.63;;;3.10;;
40599;SDS011;26309;50.924;4.754;2023-12-20T10:07:15;14.17;;;3.40;;
40599;SDS011;26309;50.924;4.754;2023-12-20T10:09:41;17.43;;;3.40;;
40599;SDS011;26309;50.924;4.754;2023-12-20T10:12:08;11.30;;;2.90;;
40599;SDS011;26309;50.924;4.754;2023-12-20T10:14:33;20.23;;;3.60;;
40599;SDS011;26309;50.924;4.754;2023-12-20T10:17:03;19.53;;;3.63;;
40599;SDS011;26309;50.924;4.754;2023-12-20T10:19:29;17.27;;;3.97;;
40599;SDS011;26309;50.924;4.754;2023-12-20T10:21:55;16.03;;;3.43;;
40599;SDS011;26309;50.924;4.754;2023-12-20T10:24:22;15.43;;;3.63;;
40599;SDS011;26309;50.924;4.754;2023-12-20T10:26:55;23.57;;;3.83;;
40599;SDS011;26309;50.924;4.754;2023-12-20T10:29:31;15.33;;;3.57;;
40599;SDS011;26309;50.924;4.754;2023-12-20T10:32:10;20.17;;;3.50;;
40599;SDS011;26309;50.924;4.754;2023-12-20T10:34:47;14.90;;;3.67;;
40599;SDS011;26309;50.924;4.754;2023-12-20T10:37:13;15.70;;;3.73;;
40599;SDS011;26309;50.924;4.754;2023-12-20T10:39:39;21.70;;;3.73;;
40599;SDS011;26309;50.924;4.754;2023-12-20T10:42:08;14.03;;;3.43;;
40599;SDS011;26309;50.924;4.754;2023-12-20T10:44:38;17.47;;;4.00;;
40599;SDS011;26309;50.924;4.754;2023-12-20T10:47:04;16.67;;;3.83;;
40599;SDS011;26309;50.924;4.754;2023-12-20T10:49:31;16.70;;;3.70;;
40599;SDS011;26309;50.924;4.754;2023-12-20T10:52:01;17.93;;;3.97;;
40599;SDS011;26309;50.924;4.754;2023-12-20T10:54:29;20.83;;;3.40;;
40599;SDS011;26309;50.924;4.754;2023-12-20T10:56:55;19.77;;;3.87;;
40599;SDS011;26309;50.924;4.754;2023-12-20T10:59:23;16.33;;;3.40;;
40599;SDS011;26309;50.924;4.754;2023-12-20T11:01:50;18.77;;;4.17;;
40599;SDS011;26309;50.924;4.754;2023-12-20T11:04:22;13.23;;;3.93;;
40599;SDS011;26309;50.924;4.754;2023-12-20T11:06:55;15.30;;;3.63;;
40599;SDS011;26309;50.924;4.754;2023-12-20T11:09:34;16.93;;;3.67;;
40599;SDS011;26309;50.924;4.754;2023-12-20T11:14:39;15.00;;;3.07;;
40599;SDS011;26309;50.924;4.754;2023-12-20T11:17:11;17.77;;;3.73;;
40599;SDS011;26309;50.924;4.754;2023-12-20T11:22:27;16.73;;;3.73;;
40599;SDS011;26309;50.924;4.754;2023-12-20T11:24:58;18.03;;;3.37;;
40599;SDS011;26309;50.924;4.754;2023-12-20T11:27:40;19.60;;;3.93;;
40599;SDS011;26309;50.924;4.754;2023-12-20T11:30:08;18.53;;;3.77;;
40599;SDS011;26309;50.924;4.754;2023-12-20T11:32:35;16.00;;;4.17;;
40599;SDS011;26309;50.924;4.754;2023-12-20T11:37:38;15.33;;;3.67;;
40599;SDS011;26309;50.924;4.754;2023-12-20T11:40:13;15.50;;;3.80;;
40599;SDS011;26309;50.924;4.754;2023-12-20T11:42:50;16.20;;;3.53;;
40599;SDS011;26309;50.924;4.754;2023-12-20T11:45:18;15.37;;;3.73;;
40599;SDS011;26309;50.924;4.754;2023-12-20T11:47:47;17.70;;;3.90;;
40599;SDS011;26309;50.924;4.754;2023-12-20T11:50:20;20.10;;;4.40;;
40599;SDS011;26309;50.924;4.754;2023-12-20T11:52:47;14.80;;;4.33;;
40599;SDS011;26309;50.924;4.754;2023-12-20T11:55:13;13.47;;;3.87;;
40599;SDS011;26309;50.924;4.754;2023-12-20T11:57:39;16.03;;;4.17;;
40599;SDS011;26309;50.924;4.754;2023-12-20T12:00:06;24.63;;;4.37;;
40599;SDS011;26309;50.924;4.754;2023-12-20T12:02:33;17.43;;;3.93;;
40599;SDS011;26309;50.924;4.754;2023-12-20T12:04:59;20.13;;;4.57;;
40599;SDS011;26309;50.924;4.754;2023-12-20T12:07:25;21.10;;;4.27;;
40599;SDS011;26309;50.924;4.754;2023-12-20T12:09:51;20.47;;;3.77;;
40599;SDS011;26309;50.924;4.754;2023-12-20T12:12:17;17.23;;;3.73;;
40599;SDS011;26309;50.924;4.754;2023-12-20T12:14:44;17.23;;;4.10;;
40599;SDS011;26309;50.924;4.754;2023-12-20T12:17:11;20.33;;;4.03;;
40599;SDS011;26309;50.924;4.754;2023-12-20T12:19:40;16.93;;;3.60;;
40599;SDS011;26309;50.924;4.754;2023-12-20T12:22:08;17.80;;;3.80;;
40599;SDS011;26309;50.924;4.754;2023-12-20T12:24:45;17.33;;;3.70;;
40599;SDS011;26309;50.924;4.754;2023-12-20T12:27:12;26.90;;;3.83;;
40599;SDS011;26309;50.924;4.754;2023-12-20T12:29:39;16.10;;;3.90;;
40599;SDS011;26309;50.924;4.754;2023-12-20T12:32:06;21.40;;;3.30;;
40599;SDS011;26309;50.924;4.754;2023-12-20T12:34:33;14.30;;;4.13;;
40599;SDS011;26309;50.924;4.754;2023-12-20T12:36:59;13.63;;;3.13;;
40599;SDS011;26309;50.924;4.754;2023-12-20T12:39:25;14.37;;;3.90;;
40599;SDS011;26309;50.924;4.754;2023-12-20T12:41:52;17.33;;;3.37;;
40599;SDS011;26309;50.924;4.754;2023-12-20T12:44:18;13.47;;;3.30;;
40599;SDS011;26309;50.924;4.754;2023-12-20T12:46:45;14.33;;;3.67;;
40599;SDS011;26309;50.924;4.754;2023-12-20T12:49:11;14.00;;;3.70;;
40599;SDS011;26309;50.924;4.754;2023-12-20T12:51:37;10.93;;;3.27;;
40599;SDS011;26309;50.924;4.754;2023-12-20T12:54:04;27.23;;;4.30;;
40599;SDS011;26309;50.924;4.754;2023-12-20T12:56:29;15.43;;;3.70;;
40599;SDS011;26309;50.924;4.754;2023-12-20T12:58:55;18.87;;;4.00;;
40599;SDS011;26309;50.924;4.754;2023-12-20T13:01:21;17.93;;;4.13;;
40599;SDS011;26309;50.924;4.754;2023-12-20T13:03:47;16.87;;;4.20;;
40599;SDS011;26309;50.924;4.754;2023-12-20T13:06:13;20.10;;;4.45;;
40599;SDS011;26309;50.924;4.754;2023-12-20T13:08:39;14.07;;;3.47;;
40599;SDS011;26309;50.924;4.754;2023-12-20T13:11:04;15.65;;;3.92;;
40599;SDS011;26309;50.924;4.754;2023-12-20T13:13:30;15.60;;;3.73;;
40599;SDS011;26309;50.924;4.754;2023-12-20T13:15:56;14.70;;;3.33;;
40599;SDS011;26309;50.924;4.754;2023-12-20T13:18:22;15.93;;;4.00;;
40599;SDS011;26309;50.924;4.754;2023-12-20T13:20:48;18.77;;;3.90;;
40599;SDS011;26309;50.924;4.754;2023-12-20T13:23:14;13.97;;;3.80;;
40599;SDS011;26309;50.924;4.754;2023-12-20T13:25:45;16.97;;;4.03;;
40599;SDS011;26309;50.924;4.754;2023-12-20T13:28:11;13.17;;;4.13;;
40599;SDS011;26309;50.924;4.754;2023-12-20T13:30:38;20.73;;;3.93;;
40599;SDS011;26309;50.924;4.754;2023-12-20T13:33:04;15.03;;;3.83;;
40599;SDS011;26309;50.924;4.754;2023-12-20T13:35:30;21.50;;;4.70;;
40599;SDS011;26309;50.924;4.754;2023-12-20T13:37:57;14.30;;;3.90;;
40599;SDS011;26309;50.924;4.754;2023-12-20T13:40:23;15.47;;;4.17;;
40599;SDS011;26309;50.924;4.754;2023-12-20T13:42:49;17.23;;;3.70;;
40599;SDS011;26309;50.924;4.754;2023-12-20T13:45:15;12.73;;;3.83;;
40599;SDS011;26309;50.924;4.754;2023-12-20T13:47:41;19.27;;;4.20;;
40599;SDS011;26309;50.924;4.754;2023-12-20T13:50:07;15.27;;;3.90;;
40599;SDS011;26309;50.924;4.754;2023-12-20T13:52:33;18.03;;;4.37;;
40599;SDS011;26309;50.924;4.754;2023-12-20T13:55:00;16.25;;;3.40;;
40599;SDS011;26309;50.924;4.754;2023-12-20T13:57:26;18.80;;;3.83;;
40599;SDS011;26309;50.924;4.754;2023-12-20T13:59:54;12.63;;;3.70;;
40599;SDS011;26309;50.924;4.754;2023-12-20T14:02:22;14.23;;;3.73;;
40599;SDS011;26309;50.924;4.754;2023-12-20T14:04:47;15.27;;;3.90;;
40599;SDS011;26309;50.924;4.754;2023-12-20T14:07:13;16.80;;;3.53;;
40599;SDS011;26309;50.924;4.754;2023-12-20T14:09:39;10.23;;;3.40;;
40599;SDS011;26309;50.924;4.754;2023-12-20T14:12:13;15.80;;;3.87;;
40599;SDS011;26309;50.924;4.754;2023-12-20T14:14:39;14.85;;;3.38;;
40599;SDS011;26309;50.924;4.754;2023-12-20T14:17:05;12.68;;;3.55;;
40599;SDS011;26309;50.924;4.754;2023-12-20T14:19:33;22.98;;;4.80;;
40599;SDS011;26309;50.924;4.754;2023-12-20T14:21:59;11.90;;;3.63;;
40599;SDS011;26309;50.924;4.754;2023-12-20T14:24:29;15.90;;;3.53;;
40599;SDS011;26309;50.924;4.754;2023-12-20T14:26:58;17.37;;;3.73;;
40599;SDS011;26309;50.924;4.754;2023-12-20T14:29:23;17.27;;;3.83;;
40599;SDS011;26309;50.924;4.754;2023-12-20T14:31:49;14.48;;;3.45;;
40599;SDS011;26309;50.924;4.754;2023-12-20T14:34:15;13.85;;;4.03;;
40599;SDS011;26309;50.924;4.754;2023-12-20T14:36:41;18.20;;;3.75;;
40599;SDS011;26309;50.924;4.754;2023-12-20T14:39:07;14.20;;;3.80;;
40599;SDS011;26309;50.924;4.754;2023-12-20T14:41:33;12.90;;;3.67;;